createdAt,value
2023-02-19T00:00:33.800Z,0.00
2023-02-19T00:01:33.771Z,0.00
2023-02-19T00:02:33.771Z,0.00
2023-02-19T00:03:33.843Z,0.00
2023-02-19T00:04:33.807Z,0.00
2023-02-19T00:05:33.754Z,0.00
2023-02-19T00:06:33.730Z,0.00
2023-02-19T00:07:33.730Z,0.00
2023-02-19T00:08:33.713Z,0.00
2023-02-19T00:09:33.689Z,0.00
2023-02-19T00:10:33.687Z,0.00
2023-02-19T00:11:34.090Z,0.00
2023-02-19T00:12:33.667Z,0.00
2023-02-19T00:13:33.682Z,0.00
2023-02-19T00:14:33.650Z,0.00
2023-02-19T00:15:33.660Z,0.00
2023-02-19T00:16:33.618Z,0.00
2023-02-19T00:17:33.636Z,0.00
2023-02-19T00:18:33.593Z,0.00
2023-02-19T00:19:33.624Z,0.00
2023-02-19T00:20:33.601Z,0.00
2023-02-19T00:21:33.580Z,0.00
2023-02-19T00:22:33.551Z,0.00
2023-02-19T00:23:33.563Z,0.00
2023-02-19T00:24:33.530Z,0.00
2023-02-19T00:25:33.551Z,0.00
2023-02-19T00:26:33.542Z,0.00
2023-02-19T00:27:33.509Z,0.00
2023-02-19T00:28:33.510Z,0.00
2023-02-19T00:29:33.470Z,0.00
2023-02-19T00:30:33.479Z,0.00
2023-02-19T00:31:33.831Z,0.00
2023-02-19T00:32:33.451Z,0.00
2023-02-19T00:33:33.532Z,0.00
2023-02-19T00:34:33.420Z,0.00
2023-02-19T00:35:33.412Z,0.00
2023-02-19T00:36:33.393Z,0.00
2023-02-19T00:37:33.393Z,0.00
2023-02-19T00:38:33.361Z,0.00
2023-02-19T00:39:33.367Z,0.00
2023-02-19T00:40:33.354Z,0.00
2023-02-19T00:41:33.361Z,0.00
2023-02-19T00:42:33.382Z,0.00
2023-02-19T00:43:33.313Z,0.00
2023-02-19T00:44:33.306Z,0.00
2023-02-19T00:45:33.294Z,0.00
2023-02-19T00:46:33.333Z,0.00
2023-02-19T00:47:33.287Z,0.00
2023-02-19T00:48:33.241Z,0.00
2023-02-19T00:49:33.245Z,0.00
2023-02-19T00:50:33.219Z,0.00
2023-02-19T00:51:40.473Z,0.00
2023-02-19T00:52:38.128Z,0.00
2023-02-19T00:53:33.267Z,0.00
2023-02-19T00:54:33.202Z,0.00
2023-02-19T00:55:33.191Z,0.00
2023-02-19T00:56:33.170Z,0.00
2023-02-19T00:57:33.199Z,0.00
2023-02-19T00:58:33.187Z,0.00
2023-02-19T00:59:33.185Z,0.00
2023-02-19T01:00:33.131Z,0.00
2023-02-19T01:01:33.162Z,0.00
2023-02-19T01:02:33.098Z,0.00
2023-02-19T01:03:33.110Z,0.00
2023-02-19T01:04:33.102Z,0.00
2023-02-19T01:05:33.076Z,0.00
2023-02-19T01:06:33.057Z,0.00
2023-02-19T01:07:33.056Z,0.00
2023-02-19T01:08:33.053Z,0.00
2023-02-19T01:09:33.024Z,0.00
2023-02-19T01:10:33.018Z,0.00
2023-02-19T01:11:33.012Z,0.00
2023-02-19T01:12:33.005Z,0.00
2023-02-19T01:13:33.024Z,0.00
2023-02-19T01:14:33.008Z,0.00
2023-02-19T01:15:32.962Z,0.00
2023-02-19T01:16:32.962Z,0.00
2023-02-19T01:17:32.935Z,0.00
2023-02-19T01:18:32.943Z,0.00
2023-02-19T01:19:32.921Z,0.00
2023-02-19T01:20:32.912Z,0.00
2023-02-19T01:21:32.897Z,0.00
2023-02-19T01:22:32.863Z,0.00
2023-02-19T01:23:32.863Z,0.00
2023-02-19T01:24:32.885Z,0.00
2023-02-19T01:25:32.845Z,0.00
2023-02-19T01:26:32.829Z,0.00
2023-02-19T01:27:32.825Z,0.00
2023-02-19T01:28:32.822Z,0.00
2023-02-19T01:29:32.817Z,0.00
2023-02-19T01:30:32.877Z,0.00
2023-02-19T01:31:32.913Z,0.00
2023-02-19T01:32:32.786Z,0.00
2023-02-19T01:33:33.209Z,0.00
2023-02-19T01:34:32.733Z,0.00
2023-02-19T01:35:32.745Z,0.00
2023-02-19T01:36:32.733Z,0.00
2023-02-19T01:37:32.705Z,0.00
2023-02-19T01:38:32.686Z,0.00
2023-02-19T01:39:32.695Z,0.00
2023-02-19T01:40:32.727Z,0.00
2023-02-19T01:41:32.655Z,0.00
2023-02-19T01:42:32.658Z,0.00
2023-02-19T01:43:32.648Z,0.00
2023-02-19T01:44:32.624Z,0.00
2023-02-19T01:45:32.632Z,0.00
2023-02-19T01:46:32.756Z,0.00
2023-02-19T01:47:32.614Z,0.00
2023-02-19T01:48:32.589Z,0.00
2023-02-19T01:49:32.588Z,0.00
2023-02-19T01:50:32.574Z,0.00
2023-02-19T01:51:32.571Z,0.00
2023-02-19T01:52:32.642Z,0.00
2023-02-19T01:53:32.889Z,0.00
2023-02-19T01:54:32.525Z,0.00
2023-02-19T01:55:32.516Z,0.00
2023-02-19T01:56:32.492Z,0.00
2023-02-19T01:57:32.529Z,0.00
2023-02-19T01:58:32.483Z,0.00
2023-02-19T01:59:32.491Z,0.00
2023-02-19T02:00:32.510Z,0.00
2023-02-19T02:01:32.450Z,0.00
2023-02-19T02:02:32.449Z,0.00
2023-02-19T02:03:32.438Z,0.00
2023-02-19T02:04:32.408Z,0.00
2023-02-19T02:05:32.427Z,0.00
2023-02-19T02:06:32.513Z,0.00
2023-02-19T02:07:32.458Z,0.00
2023-02-19T02:08:32.419Z,0.00
2023-02-19T02:09:32.409Z,0.00
2023-02-19T02:10:32.482Z,0.00
2023-02-19T02:11:32.526Z,0.00
2023-02-19T02:12:32.532Z,0.00
2023-02-19T02:13:32.513Z,0.00
2023-02-19T02:14:32.546Z,0.00
2023-02-19T02:15:32.569Z,0.00
2023-02-19T02:16:32.876Z,0.00
2023-02-19T02:17:32.890Z,0.00
2023-02-19T02:18:32.541Z,0.00
2023-02-19T02:19:32.579Z,0.00
2023-02-19T02:20:32.557Z,0.00
2023-02-19T02:21:32.612Z,0.00
2023-02-19T02:22:32.201Z,0.00
2023-02-19T02:23:32.197Z,0.00
2023-02-19T02:24:32.183Z,0.00
2023-02-19T02:25:32.184Z,0.00
2023-02-19T02:26:32.193Z,0.00
2023-02-19T02:27:32.161Z,0.00
2023-02-19T02:28:32.156Z,0.00
2023-02-19T02:29:32.130Z,0.00
2023-02-19T02:30:32.197Z,0.00
2023-02-19T02:31:32.212Z,0.00
2023-02-19T02:32:32.111Z,0.00
2023-02-19T02:33:32.085Z,0.00
2023-02-19T02:34:32.093Z,0.00
2023-02-19T02:35:32.071Z,0.00
2023-02-19T02:36:32.059Z,0.00
2023-02-19T02:37:32.066Z,0.00
2023-02-19T02:38:32.045Z,0.00
2023-02-19T02:39:32.027Z,0.00
2023-02-19T02:40:32.011Z,0.00
2023-02-19T02:41:32.024Z,0.00
2023-02-19T02:42:32.839Z,0.00
2023-02-19T02:43:32.017Z,0.00
2023-02-19T02:44:31.963Z,0.00
2023-02-19T02:45:32.024Z,0.00
2023-02-19T02:46:37.541Z,0.00
2023-02-19T02:47:31.944Z,0.00
2023-02-19T02:48:31.943Z,0.00
2023-02-19T02:49:31.927Z,0.00
2023-02-19T02:50:31.914Z,0.00
2023-02-19T02:51:31.912Z,0.00
2023-02-19T02:52:31.890Z,0.00
2023-02-19T02:53:31.898Z,0.00
2023-02-19T02:54:31.842Z,0.00
2023-02-19T02:55:31.857Z,0.00
2023-02-19T02:56:31.856Z,0.00
2023-02-19T02:57:31.818Z,0.00
2023-02-19T02:58:31.821Z,0.00
2023-02-19T02:59:31.807Z,0.00
2023-02-19T03:00:31.784Z,0.00
2023-02-19T03:01:31.776Z,0.00
2023-02-19T03:02:31.989Z,0.00
2023-02-19T03:03:31.748Z,0.00
2023-02-19T03:04:32.047Z,0.00
2023-02-19T03:05:31.746Z,0.00
2023-02-19T03:06:31.707Z,0.00
2023-02-19T03:07:31.728Z,0.00
2023-02-19T03:08:31.685Z,0.00
2023-02-19T03:09:31.695Z,0.00
2023-02-19T03:10:31.934Z,0.00
2023-02-19T03:11:31.663Z,0.00
2023-02-19T03:12:31.644Z,0.00
2023-02-19T03:13:31.635Z,0.00
2023-02-19T03:14:31.618Z,0.00
2023-02-19T03:15:31.644Z,0.00
2023-02-19T03:16:31.637Z,0.00
2023-02-19T03:17:31.602Z,0.00
2023-02-19T03:18:31.576Z,0.00
2023-02-19T03:19:31.578Z,0.00
2023-02-19T03:20:31.569Z,0.00
2023-02-19T03:21:31.614Z,0.00
2023-02-19T03:22:31.956Z,0.00
2023-02-19T03:23:31.526Z,0.00
2023-02-19T03:24:31.507Z,0.00
2023-02-19T03:25:31.510Z,0.00
2023-02-19T03:26:31.496Z,0.00
2023-02-19T03:27:31.519Z,0.00
2023-02-19T03:28:31.485Z,0.00
2023-02-19T03:29:31.460Z,0.00
2023-02-19T03:30:31.557Z,0.00
2023-02-19T03:31:31.544Z,0.00
2023-02-19T03:32:31.439Z,0.00
2023-02-19T03:33:31.420Z,0.00
2023-02-19T03:34:31.412Z,0.00
2023-02-19T03:35:31.467Z,0.00
2023-02-19T03:36:31.382Z,0.00
2023-02-19T03:37:31.412Z,0.00
2023-02-19T03:38:31.652Z,0.00
2023-02-19T03:39:31.355Z,0.00
2023-02-19T03:40:31.355Z,0.00
2023-02-19T03:41:31.334Z,0.00
2023-02-19T03:42:31.313Z,0.00
2023-02-19T03:43:31.308Z,0.00
2023-02-19T03:44:31.293Z,0.00
2023-02-19T03:45:31.280Z,0.00
2023-02-19T03:46:31.273Z,0.00
2023-02-19T03:47:31.257Z,0.00
2023-02-19T03:48:31.240Z,0.00
2023-02-19T03:49:31.233Z,0.00
2023-02-19T03:50:31.231Z,0.00
2023-02-19T03:51:31.225Z,0.00
2023-02-19T03:52:31.196Z,0.00
2023-02-19T03:53:31.196Z,0.00
2023-02-19T03:54:31.172Z,0.00
2023-02-19T03:55:31.174Z,0.00
2023-02-19T03:56:31.174Z,0.00
2023-02-19T03:57:31.162Z,0.00
2023-02-19T03:58:31.136Z,0.00
2023-02-19T03:59:31.141Z,0.00
2023-02-19T04:00:31.137Z,0.00
2023-02-19T04:01:31.108Z,0.00
2023-02-19T04:02:31.167Z,0.00
2023-02-19T04:03:31.097Z,0.00
2023-02-19T04:04:31.167Z,0.00
2023-02-19T04:05:31.057Z,0.00
2023-02-19T04:06:31.038Z,0.00
2023-02-19T04:07:31.050Z,0.00
2023-02-19T04:08:31.018Z,0.00
2023-02-19T04:09:31.026Z,0.00
2023-02-19T04:10:31.032Z,0.00
2023-02-19T04:11:30.998Z,0.00
2023-02-19T04:12:40.750Z,0.00
2023-02-19T04:13:30.959Z,0.00
2023-02-19T04:14:32.649Z,0.00
2023-02-19T04:15:31.693Z,0.00
2023-02-19T04:16:30.950Z,0.00
2023-02-19T04:17:30.923Z,0.00
2023-02-19T04:18:30.899Z,0.00
2023-02-19T04:19:30.901Z,0.00
2023-02-19T04:20:30.885Z,0.00
2023-02-19T04:21:30.899Z,0.00
2023-02-19T04:22:30.892Z,0.00
2023-02-19T04:23:30.875Z,0.00
2023-02-19T04:24:30.846Z,0.00
2023-02-19T04:25:30.845Z,0.00
2023-02-19T04:26:30.865Z,0.00
2023-02-19T04:27:30.839Z,0.00
2023-02-19T04:28:30.798Z,0.00
2023-02-19T04:29:30.778Z,0.00
2023-02-19T04:30:30.805Z,0.00
2023-02-19T04:31:30.938Z,0.00
2023-02-19T04:32:30.768Z,0.00
2023-02-19T04:33:30.728Z,0.00
2023-02-19T04:34:30.735Z,0.00
2023-02-19T04:35:30.718Z,0.00
2023-02-19T04:36:30.755Z,0.00
2023-02-19T04:37:30.691Z,0.00
2023-02-19T04:38:30.698Z,0.00
2023-02-19T04:39:30.678Z,0.00
2023-02-19T04:40:30.686Z,0.00
2023-02-19T04:41:30.642Z,0.00
2023-02-19T04:42:30.671Z,0.00
2023-02-19T04:43:30.662Z,0.00
2023-02-19T04:44:30.618Z,0.00
2023-02-19T04:45:30.606Z,0.00
2023-02-19T04:46:30.643Z,0.00
2023-02-19T04:47:30.629Z,0.00
2023-02-19T04:48:30.601Z,0.00
2023-02-19T04:49:30.595Z,0.00
2023-02-19T04:50:30.560Z,0.00
2023-02-19T04:51:30.537Z,0.00
2023-02-19T04:52:30.530Z,0.00
2023-02-19T04:53:30.505Z,0.00
2023-02-19T04:54:30.498Z,0.00
2023-02-19T04:55:30.533Z,0.00
2023-02-19T04:56:30.497Z,0.00
2023-02-19T04:57:30.474Z,0.00
2023-02-19T04:58:30.493Z,0.00
2023-02-19T04:59:30.441Z,0.00
2023-02-19T05:00:30.426Z,0.00
2023-02-19T05:01:30.452Z,0.00
2023-02-19T05:02:30.417Z,0.00
2023-02-19T05:03:30.395Z,0.00
2023-02-19T05:04:30.551Z,0.00
2023-02-19T05:05:30.404Z,0.00
2023-02-19T05:06:30.427Z,0.00
2023-02-19T05:07:30.346Z,0.00
2023-02-19T05:08:30.366Z,0.00
2023-02-19T05:09:30.357Z,0.00
2023-02-19T05:10:30.333Z,0.00
2023-02-19T05:11:30.317Z,0.00
2023-02-19T05:12:30.304Z,0.00
2023-02-19T05:13:30.314Z,0.00
2023-02-19T05:14:30.282Z,0.00
2023-02-19T05:15:30.457Z,0.00
2023-02-19T05:16:30.263Z,0.00
2023-02-19T05:17:30.249Z,0.00
2023-02-19T05:18:30.248Z,0.00
2023-02-19T05:19:30.217Z,0.00
2023-02-19T05:20:30.218Z,0.00
2023-02-19T05:21:30.186Z,0.00
2023-02-19T05:22:30.201Z,0.00
2023-02-19T05:23:30.186Z,0.00
2023-02-19T05:24:30.167Z,0.00
2023-02-19T05:25:30.149Z,0.00
2023-02-19T05:26:30.166Z,0.00
2023-02-19T05:27:30.146Z,0.00
2023-02-19T05:28:30.128Z,0.00
2023-02-19T05:29:30.098Z,0.00
2023-02-19T05:30:30.147Z,0.00
2023-02-19T05:31:30.193Z,0.00
2023-02-19T05:32:30.096Z,0.00
2023-02-19T05:33:30.066Z,0.00
2023-02-19T05:34:30.106Z,0.00
2023-02-19T05:35:30.037Z,0.00
2023-02-19T05:36:30.025Z,0.00
2023-02-19T05:37:30.128Z,0.00
2023-02-19T05:38:30.011Z,0.00
2023-02-19T05:39:29.986Z,0.00
2023-02-19T05:40:29.986Z,0.00
2023-02-19T05:41:29.988Z,0.00
2023-02-19T05:42:29.967Z,0.00
2023-02-19T05:43:29.947Z,0.00
2023-02-19T05:44:29.953Z,0.00
2023-02-19T05:45:29.934Z,0.00
2023-02-19T05:46:30.078Z,0.00
2023-02-19T05:47:29.908Z,0.00
2023-02-19T05:48:29.908Z,0.00
2023-02-19T05:49:29.888Z,0.00
2023-02-19T05:50:29.908Z,0.00
2023-02-19T05:51:30.608Z,0.00
2023-02-19T05:52:29.867Z,0.00
2023-02-19T05:53:30.006Z,0.00
2023-02-19T05:54:29.853Z,0.00
2023-02-19T05:55:29.820Z,0.00
2023-02-19T05:56:29.836Z,0.00
2023-02-19T05:57:29.791Z,0.00
2023-02-19T05:58:29.812Z,0.00
2023-02-19T05:59:29.768Z,0.00
2023-02-19T06:00:29.768Z,0.00
2023-02-19T06:01:29.740Z,0.00
2023-02-19T06:02:29.768Z,0.00
2023-02-19T06:03:29.770Z,0.00
2023-02-19T06:04:29.720Z,0.00
2023-02-19T06:05:29.701Z,0.00
2023-02-19T06:06:29.725Z,0.00
2023-02-19T06:07:29.685Z,0.00
2023-02-19T06:08:29.680Z,0.00
2023-02-19T06:09:29.658Z,0.00
2023-02-19T06:10:29.649Z,0.00
2023-02-19T06:11:30.128Z,0.00
2023-02-19T06:12:29.637Z,0.00
2023-02-19T06:13:29.614Z,0.00
2023-02-19T06:14:29.609Z,0.00
2023-02-19T06:15:29.587Z,0.00
2023-02-19T06:16:29.603Z,4.00
2023-02-19T06:17:29.617Z,4.00
2023-02-19T06:18:29.578Z,0.00
2023-02-19T06:19:29.553Z,0.00
2023-02-19T06:20:29.546Z,0.00
2023-02-19T06:21:29.540Z,0.00
2023-02-19T06:22:29.522Z,4.00
2023-02-19T06:23:29.505Z,0.00
2023-02-19T06:24:29.510Z,4.00
2023-02-19T06:25:29.501Z,4.00
2023-02-19T06:26:29.509Z,8.00
2023-02-19T06:27:29.465Z,4.00
2023-02-19T06:28:29.451Z,8.00
2023-02-19T06:29:29.459Z,8.00
2023-02-19T06:30:29.506Z,8.00
2023-02-19T06:31:30.000Z,8.00
2023-02-19T06:32:29.432Z,8.00
2023-02-19T06:33:29.392Z,12.00
2023-02-19T06:34:29.393Z,16.00
2023-02-19T06:35:29.380Z,16.00
2023-02-19T06:36:29.375Z,20.00
2023-02-19T06:37:29.352Z,20.00
2023-02-19T06:38:29.341Z,24.00
2023-02-19T06:39:29.333Z,28.00
2023-02-19T06:40:29.352Z,28.00
2023-02-19T06:41:29.308Z,28.00
2023-02-19T06:42:29.642Z,32.00
2023-02-19T06:43:29.309Z,24.00
2023-02-19T06:44:29.287Z,28.00
2023-02-19T06:45:29.266Z,24.00
2023-02-19T06:46:29.270Z,32.00
2023-02-19T06:47:29.250Z,28.00
2023-02-19T06:48:29.237Z,32.00
2023-02-19T06:49:29.229Z,36.00
2023-02-19T06:50:29.228Z,40.00
2023-02-19T06:51:29.192Z,40.00
2023-02-19T06:52:29.189Z,36.00
2023-02-19T06:53:29.186Z,32.00
2023-02-19T06:54:29.167Z,32.00
2023-02-19T06:55:29.168Z,40.00
2023-02-19T06:56:29.142Z,32.00
2023-02-19T06:57:29.124Z,36.00
2023-02-19T06:58:29.123Z,40.00
2023-02-19T06:59:29.110Z,52.00
2023-02-19T07:00:29.132Z,64.00
2023-02-19T07:01:29.103Z,68.00
2023-02-19T07:02:29.075Z,76.00
2023-02-19T07:03:29.056Z,88.00
2023-02-19T07:04:29.126Z,92.00
2023-02-19T07:05:29.035Z,92.00
2023-02-19T07:06:29.033Z,88.00
2023-02-19T07:07:29.044Z,84.00
2023-02-19T07:08:29.722Z,80.00
2023-02-19T07:09:28.985Z,92.00
2023-02-19T07:10:29.021Z,92.00
2023-02-19T07:11:28.971Z,92.00
2023-02-19T07:12:28.952Z,108.00
2023-02-19T07:13:29.033Z,108.00
2023-02-19T07:14:28.935Z,124.00
2023-02-19T07:15:28.922Z,132.00
2023-02-19T07:16:29.070Z,136.00
2023-02-19T07:17:28.906Z,132.00
2023-02-19T07:18:28.891Z,124.00
2023-02-19T07:19:28.872Z,140.00
2023-02-19T07:20:28.870Z,160.00
2023-02-19T07:21:28.874Z,172.00
2023-02-19T07:22:28.878Z,172.00
2023-02-19T07:23:28.846Z,176.00
2023-02-19T07:24:28.837Z,192.00
2023-02-19T07:25:28.802Z,208.00
2023-02-19T07:26:28.803Z,224.00
2023-02-19T07:27:28.817Z,232.00
2023-02-19T07:28:28.818Z,236.00
2023-02-19T07:29:28.760Z,264.00
2023-02-19T07:30:28.830Z,260.00
2023-02-19T07:31:28.847Z,260.00
2023-02-19T07:32:28.737Z,252.00
2023-02-19T07:33:28.741Z,228.00
2023-02-19T07:34:28.722Z,220.00
2023-02-19T07:35:28.713Z,204.00
2023-02-19T07:36:28.711Z,196.00
2023-02-19T07:37:28.679Z,200.00
2023-02-19T07:38:28.693Z,224.00
2023-02-19T07:39:28.653Z,240.00
2023-02-19T07:40:28.761Z,248.00
2023-02-19T07:41:28.634Z,236.00
2023-02-19T07:42:28.628Z,236.00
2023-02-19T07:43:28.617Z,220.00
2023-02-19T07:44:28.621Z,212.00
2023-02-19T07:45:28.661Z,228.00
2023-02-19T07:46:28.591Z,228.00
2023-02-19T07:47:28.584Z,228.00
2023-02-19T07:48:28.574Z,224.00
2023-02-19T07:49:28.559Z,236.00
2023-02-19T07:50:28.536Z,268.00
2023-02-19T07:51:28.528Z,308.00
2023-02-19T07:52:28.510Z,308.00
2023-02-19T07:53:28.513Z,312.00
2023-02-19T07:54:28.521Z,352.00
2023-02-19T07:55:28.501Z,372.00
2023-02-19T07:56:28.467Z,376.00
2023-02-19T07:57:28.456Z,336.00
2023-02-19T07:58:28.469Z,348.00
2023-02-19T07:59:28.435Z,376.00
2023-02-19T08:00:28.628Z,384.00
2023-02-19T08:01:28.449Z,368.00
2023-02-19T08:02:28.408Z,344.00
2023-02-19T08:03:28.484Z,324.00
2023-02-19T08:04:28.390Z,308.00
2023-02-19T08:05:28.395Z,280.00
2023-02-19T08:06:28.364Z,256.00
2023-02-19T08:07:28.369Z,232.00
2023-02-19T08:08:28.343Z,200.00
2023-02-19T08:09:28.352Z,152.00
2023-02-19T08:10:28.308Z,112.00
2023-02-19T08:11:28.320Z,144.00
2023-02-19T08:12:28.292Z,204.00
2023-02-19T08:13:28.268Z,228.00
2023-02-19T08:14:28.296Z,252.00
2023-02-19T08:15:28.268Z,288.00
2023-02-19T08:16:42.255Z,300.00
2023-02-19T08:17:29.262Z,284.00
2023-02-19T08:18:28.277Z,300.00
2023-02-19T08:19:28.227Z,320.00
2023-02-19T08:20:28.232Z,344.00
2023-02-19T08:21:28.192Z,344.00
2023-02-19T08:22:28.227Z,324.00
2023-02-19T08:23:28.168Z,324.00
2023-02-19T08:24:28.168Z,324.00
2023-02-19T08:25:28.140Z,324.00
2023-02-19T08:26:28.156Z,332.00
2023-02-19T08:27:28.247Z,340.00
2023-02-19T08:28:28.118Z,352.00
2023-02-19T08:29:28.100Z,360.00
2023-02-19T08:30:28.336Z,340.00
2023-02-19T08:31:28.492Z,280.00
2023-02-19T08:32:28.061Z,224.00
2023-02-19T08:33:28.093Z,200.00
2023-02-19T08:34:28.050Z,212.00
2023-02-19T08:35:28.025Z,236.00
2023-02-19T08:36:28.037Z,252.00
2023-02-19T08:37:28.011Z,260.00
2023-02-19T08:38:28.025Z,280.00
2023-02-19T08:39:28.009Z,312.00
2023-02-19T08:40:27.985Z,380.00
2023-02-19T08:41:27.970Z,464.00
2023-02-19T08:42:27.970Z,524.00
2023-02-19T08:43:27.948Z,528.00
2023-02-19T08:44:27.949Z,468.00
2023-02-19T08:45:27.962Z,424.00
2023-02-19T08:46:27.918Z,408.00
2023-02-19T08:47:27.927Z,400.00
2023-02-19T08:48:27.879Z,424.00
2023-02-19T08:49:27.902Z,488.00
2023-02-19T08:50:27.858Z,532.00
2023-02-19T08:51:28.045Z,512.00
2023-02-19T08:52:27.837Z,476.00
2023-02-19T08:53:27.864Z,484.00
2023-02-19T08:54:27.891Z,548.00
2023-02-19T08:55:27.828Z,616.00
2023-02-19T08:56:27.788Z,568.00
2023-02-19T08:57:27.806Z,484.00
2023-02-19T08:58:27.789Z,504.00
2023-02-19T08:59:27.773Z,560.00
2023-02-19T09:00:27.758Z,536.00
2023-02-19T09:01:27.769Z,528.00
2023-02-19T09:02:27.773Z,544.00
2023-02-19T09:03:27.727Z,524.00
2023-02-19T09:04:27.730Z,472.00
2023-02-19T09:05:27.710Z,344.00
2023-02-19T09:06:27.672Z,448.00
2023-02-19T09:07:27.679Z,548.00
2023-02-19T09:08:27.688Z,612.00
2023-02-19T09:09:27.665Z,508.00
2023-02-19T09:10:27.644Z,408.00
2023-02-19T09:11:27.641Z,368.00
2023-02-19T09:12:27.617Z,300.00
2023-02-19T09:13:27.613Z,300.00
2023-02-19T09:14:27.612Z,352.00
2023-02-19T09:15:27.593Z,392.00
2023-02-19T09:16:27.568Z,412.00
2023-02-19T09:17:27.576Z,376.00
2023-02-19T09:18:27.653Z,340.00
2023-02-19T09:19:27.570Z,352.00
2023-02-19T09:20:27.516Z,412.00
2023-02-19T09:21:27.525Z,500.00
2023-02-19T09:22:27.575Z,492.00
2023-02-19T09:23:27.508Z,468.00
2023-02-19T09:24:27.488Z,480.00
2023-02-19T09:25:27.478Z,536.00
2023-02-19T09:26:27.457Z,612.00
2023-02-19T09:27:27.465Z,628.00
2023-02-19T09:28:27.437Z,584.00
2023-02-19T09:29:27.440Z,628.00
2023-02-19T09:30:27.471Z,704.00
2023-02-19T09:31:27.533Z,660.00
2023-02-19T09:32:27.410Z,592.00
2023-02-19T09:33:27.400Z,524.00
2023-02-19T09:34:27.381Z,496.00
2023-02-19T09:35:27.389Z,480.00
2023-02-19T09:36:34.730Z,416.00
2023-02-19T09:37:27.436Z,416.00
2023-02-19T09:38:27.454Z,500.00
2023-02-19T09:39:27.343Z,584.00
2023-02-19T09:40:27.346Z,656.00
2023-02-19T09:41:27.304Z,624.00
2023-02-19T09:42:27.299Z,540.00
2023-02-19T09:43:27.324Z,492.00
2023-02-19T09:44:27.418Z,524.00
2023-02-19T09:45:27.265Z,580.00
2023-02-19T09:46:27.307Z,564.00
2023-02-19T09:47:27.252Z,560.00
2023-02-19T09:48:27.252Z,700.00
2023-02-19T09:49:34.339Z,792.00
2023-02-19T09:50:27.204Z,792.00
2023-02-19T09:51:27.196Z,720.00
2023-02-19T09:52:27.182Z,600.00
2023-02-19T09:53:27.211Z,516.00
2023-02-19T09:54:27.150Z,468.00
2023-02-19T09:55:27.141Z,456.00
2023-02-19T09:56:27.133Z,464.00
2023-02-19T09:57:27.122Z,456.00
2023-02-19T09:58:27.280Z,448.00
2023-02-19T09:59:27.130Z,512.00
2023-02-19T10:00:27.275Z,600.00
2023-02-19T10:01:27.090Z,684.00
2023-02-19T10:02:27.060Z,764.00
2023-02-19T10:03:27.060Z,860.00
2023-02-19T10:04:27.519Z,868.00
2023-02-19T10:05:27.084Z,784.00
2023-02-19T10:06:27.016Z,712.00
2023-02-19T10:07:27.019Z,628.00
2023-02-19T10:08:27.000Z,640.00
2023-02-19T10:09:27.028Z,716.00
2023-02-19T10:10:26.977Z,812.00
2023-02-19T10:11:26.987Z,872.00
2023-02-19T10:12:26.947Z,872.00
2023-02-19T10:13:26.940Z,820.00
2023-02-19T10:14:26.936Z,792.00
2023-02-19T10:15:26.938Z,828.00
2023-02-19T10:16:26.913Z,804.00
2023-02-19T10:17:26.903Z,780.00
2023-02-19T10:18:26.870Z,792.00
2023-02-19T10:19:26.872Z,840.00
2023-02-19T10:20:26.877Z,900.00
2023-02-19T10:21:26.839Z,924.00
2023-02-19T10:22:26.838Z,920.00
2023-02-19T10:23:26.830Z,932.00
2023-02-19T10:24:26.806Z,1024.00
2023-02-19T10:25:26.818Z,1028.00
2023-02-19T10:26:26.807Z,948.00
2023-02-19T10:27:26.799Z,860.00
2023-02-19T10:28:26.778Z,804.00
2023-02-19T10:29:26.756Z,832.00
2023-02-19T10:30:26.763Z,844.00
2023-02-19T10:31:26.921Z,836.00
2023-02-19T10:32:26.738Z,828.00
2023-02-19T10:33:26.721Z,804.00
2023-02-19T10:34:26.696Z,788.00
2023-02-19T10:35:26.726Z,756.00
2023-02-19T10:36:26.704Z,784.00
2023-02-19T10:37:26.670Z,832.00
2023-02-19T10:38:26.663Z,888.00
2023-02-19T10:39:26.650Z,916.00
2023-02-19T10:40:26.649Z,900.00
2023-02-19T10:41:26.654Z,880.00
2023-02-19T10:42:26.600Z,916.00
2023-02-19T10:43:26.607Z,956.00
2023-02-19T10:44:26.589Z,1000.00
2023-02-19T10:45:26.581Z,1016.00
2023-02-19T10:46:26.576Z,1048.00
2023-02-19T10:47:26.580Z,1060.00
2023-02-19T10:48:26.552Z,1000.00
2023-02-19T10:49:26.541Z,1000.00
2023-02-19T10:50:26.541Z,984.00
2023-02-19T10:51:26.520Z,920.00
2023-02-19T10:52:26.498Z,648.00
2023-02-19T10:53:26.514Z,516.00
2023-02-19T10:54:26.509Z,584.00
2023-02-19T10:55:26.516Z,804.00
2023-02-19T10:56:26.509Z,1104.00
2023-02-19T10:57:26.580Z,1204.00
2023-02-19T10:58:26.511Z,1160.00
2023-02-19T10:59:26.523Z,1268.00
2023-02-19T11:00:26.512Z,1332.00
2023-02-19T11:01:26.515Z,1408.00
2023-02-19T11:02:26.520Z,1544.00
2023-02-19T11:03:26.453Z,1684.00
2023-02-19T11:04:26.620Z,1688.00
2023-02-19T11:05:26.570Z,1748.00
2023-02-19T11:06:26.552Z,1672.00
2023-02-19T11:07:26.581Z,1492.00
2023-02-19T11:08:26.572Z,1452.00
2023-02-19T11:09:26.383Z,1436.00
2023-02-19T11:10:26.329Z,1248.00
2023-02-19T11:11:26.304Z,1112.00
2023-02-19T11:12:26.273Z,1380.00
2023-02-19T11:13:26.306Z,1612.00
2023-02-19T11:14:26.251Z,1516.00
2023-02-19T11:15:26.259Z,1412.00
2023-02-19T11:16:26.266Z,1472.00
2023-02-19T11:17:26.232Z,1152.00
2023-02-19T11:18:26.340Z,1100.00
2023-02-19T11:19:26.216Z,1024.00
2023-02-19T11:20:26.184Z,844.00
2023-02-19T11:21:26.179Z,704.00
2023-02-19T11:22:26.160Z,728.00
2023-02-19T11:23:26.180Z,768.00
2023-02-19T11:24:26.155Z,904.00
2023-02-19T11:25:26.144Z,964.00
2023-02-19T11:26:26.125Z,932.00
2023-02-19T11:27:26.129Z,844.00
2023-02-19T11:28:26.110Z,916.00
2023-02-19T11:29:26.088Z,912.00
2023-02-19T11:30:26.142Z,952.00
2023-02-19T11:31:26.155Z,996.00
2023-02-19T11:32:26.091Z,1040.00
2023-02-19T11:33:26.084Z,1064.00
2023-02-19T11:34:26.208Z,1040.00
2023-02-19T11:35:26.022Z,1004.00
2023-02-19T11:36:27.233Z,968.00
2023-02-19T11:37:26.002Z,968.00
2023-02-19T11:38:25.983Z,1000.00
2023-02-19T11:39:25.994Z,1068.00
2023-02-19T11:40:25.963Z,1156.00
2023-02-19T11:41:25.956Z,1228.00
2023-02-19T11:42:28.287Z,1260.00
2023-02-19T11:43:25.944Z,1268.00
2023-02-19T11:44:25.978Z,1248.00
2023-02-19T11:45:25.937Z,1260.00
2023-02-19T11:46:25.939Z,1312.00
2023-02-19T11:47:25.929Z,1388.00
2023-02-19T11:48:25.888Z,1388.00
2023-02-19T11:49:26.099Z,1344.00
2023-02-19T11:50:25.879Z,1364.00
2023-02-19T11:51:25.861Z,1444.00
2023-02-19T11:52:25.839Z,1432.00
2023-02-19T11:53:25.846Z,1392.00
2023-02-19T11:55:16.882Z,1440.00
2023-02-19T11:56:16.885Z,1468.00
2023-02-19T11:57:16.866Z,1468.00
2023-02-19T11:58:16.862Z,1420.00
2023-02-19T11:59:16.847Z,1360.00
2023-02-19T12:00:16.851Z,1308.00
2023-02-19T12:01:16.834Z,1228.00
2023-02-19T12:02:16.906Z,1152.00
2023-02-19T12:03:16.793Z,1164.00
2023-02-19T12:04:16.788Z,1292.00
2023-02-19T12:05:16.868Z,1460.00
2023-02-19T12:06:16.787Z,1652.00
2023-02-19T12:07:17.033Z,1796.00
2023-02-19T12:08:16.748Z,1720.00
2023-02-19T12:09:16.728Z,1648.00
2023-02-19T12:10:16.727Z,1540.00
2023-02-19T12:11:16.717Z,1432.00
2023-02-19T12:12:16.711Z,1324.00
2023-02-19T12:13:16.680Z,1236.00
2023-02-19T12:14:16.691Z,1176.00
2023-02-19T12:15:16.657Z,1104.00
2023-02-19T12:16:16.703Z,1028.00
2023-02-19T12:17:16.670Z,1048.00
2023-02-19T12:18:16.671Z,1104.00
2023-02-19T12:19:16.652Z,1132.00
2023-02-19T12:20:16.605Z,1128.00
2023-02-19T12:21:16.603Z,1156.00
2023-02-19T12:22:16.616Z,1188.00
2023-02-19T12:23:16.565Z,1184.00
2023-02-19T12:24:16.557Z,1136.00
2023-02-19T12:25:16.577Z,1092.00
2023-02-19T12:26:16.538Z,1048.00
2023-02-19T12:27:16.567Z,1036.00
2023-02-19T12:28:16.534Z,1072.00
2023-02-19T12:29:16.509Z,1120.00
2023-02-19T12:30:16.598Z,1120.00
2023-02-19T12:31:16.548Z,1120.00
2023-02-19T12:32:16.541Z,1168.00
2023-02-19T12:33:16.493Z,1232.00
2023-02-19T12:34:16.434Z,1296.00
2023-02-19T12:35:16.433Z,1396.00
2023-02-19T12:36:16.439Z,1420.00
2023-02-19T12:37:16.409Z,1316.00
2023-02-19T12:38:16.472Z,1248.00
2023-02-19T12:39:16.393Z,1260.00
2023-02-19T12:40:16.377Z,1296.00
2023-02-19T12:41:16.522Z,1348.00
2023-02-19T12:42:16.408Z,1344.00
2023-02-19T12:43:16.376Z,1348.00
2023-02-19T12:44:16.350Z,1328.00
2023-02-19T12:45:16.358Z,1276.00
2023-02-19T12:46:16.434Z,1276.00
2023-02-19T12:47:16.364Z,1312.00
2023-02-19T12:48:16.288Z,1332.00
2023-02-19T12:49:16.282Z,1340.00
2023-02-19T12:50:16.810Z,1412.00
2023-02-19T12:51:16.268Z,1484.00